sensor_id;sensor_type;location;lat;lon;timestamp;temperature;humidity
75517;DHT22;64097;52.548;13.406;2024-03-25T06:01:38;13.00;63.40
75517;DHT22;64097;52.548;13.406;2024-03-25T06:04:05;13.00;63.30
75517;DHT22;64097;52.548;13.406;2024-03-25T06:06:31;13.00;63.30
75517;DHT22;64097;52.548;13.406;2024-03-25T06:08:57;13.10;63.40
75517;DHT22;64097;52.548;13.406;2024-03-25T06:11:23;13.00;63.10
75517;DHT22;64097;52.548;13.406;2024-03-25T06:13:49;13.10;63.20
75517;DHT22;64097;52.548;13.406;2024-03-25T06:16:14;13.10;63.20
75517;DHT22;64097;52.548;13.406;2024-03-25T06:18:40;13.10;63.00
75517;DHT22;64097;52.548;13.406;2024-03-25T06:21:06;13.10;63.00
75517;DHT22;64097;52.548;13.406;2024-03-25T06:23:32;13.10;62.90
75517;DHT22;64097;52.548;13.406;2024-03-25T06:25:58;13.10;62.80
75517;DHT22;64097;52.548;13.406;2024-03-25T06:28:24;13.20;62.90
75517;DHT22;64097;52.548;13.406;2024-03-25T06:30:51;13.20;62.90
75517;DHT22;64097;52.548;13.406;2024-03-25T06:33:35;13.20;62.90
75517;DHT22;64097;52.548;13.406;2024-03-25T06:36:20;13.20;62.80
75517;DHT22;64097;52.548;13.406;2024-03-25T06:38:46;13.20;62.70
75517;DHT22;64097;52.548;13.406;2024-03-25T06:41:12;13.20;62.80
75517;DHT22;64097;52.548;13.406;2024-03-25T06:43:38;13.20;62.70
75517;DHT22;64097;52.548;13.406;2024-03-25T06:46:04;13.20;62.60
75517;DHT22;64097;52.548;13.406;2024-03-25T06:48:30;13.20;62.50
75517;DHT22;64097;52.548;13.406;2024-03-25T06:50:56;13.20;62.50
75517;DHT22;64097;52.548;13.406;2024-03-25T06:53:22;13.30;62.60
75517;DHT22;64097;52.548;13.406;2024-03-25T06:56:01;13.30;62.40
75517;DHT22;64097;52.548;13.406;2024-03-25T06:58:27;13.30;62.30
75517;DHT22;64097;52.548;13.406;2024-03-25T07:00:54;13.30;62.20
75517;DHT22;64097;52.548;13.406;2024-03-25T07:03:21;13.30;62.00
75517;DHT22;64097;52.548;13.406;2024-03-25T07:05:48;13.30;62.00
75517;DHT22;64097;52.548;13.406;2024-03-25T07:08:15;13.30;62.10
75517;DHT22;64097;52.548;13.406;2024-03-25T07:10:44;13.30;62.10
75517;DHT22;64097;52.548;13.406;2024-03-25T07:13:10;13.30;62.00
75517;DHT22;64097;52.548;13.406;2024-03-25T07:15:36;13.30;62.00
75517;DHT22;64097;52.548;13.406;2024-03-25T07:18:02;13.30;62.10
75517;DHT22;64097;52.548;13.406;2024-03-25T07:20:29;13.30;62.10
75517;DHT22;64097;52.548;13.406;2024-03-25T07:22:54;13.40;62.20
75517;DHT22;64097;52.548;13.406;2024-03-25T07:25:24;13.40;62.20
75517;DHT22;64097;52.548;13.406;2024-03-25T07:27:50;13.40;62.00
75517;DHT22;64097;52.548;13.406;2024-03-25T07:30:15;13.40;61.90
75517;DHT22;64097;52.548;13.406;2024-03-25T07:32:41;13.50;61.90
75517;DHT22;64097;52.548;13.406;2024-03-25T07:35:07;13.50;61.60
75517;DHT22;64097;52.548;13.406;2024-03-25T07:37:35;13.50;61.50
75517;DHT22;64097;52.548;13.406;2024-03-25T07:40:00;13.50;61.50
75517;DHT22;64097;52.548;13.406;2024-03-25T07:42:26;13.50;61.60
75517;DHT22;64097;52.548;13.406;2024-03-25T07:44:52;13.50;61.50
75517;DHT22;64097;52.548;13.406;2024-03-25T07:47:18;13.50;61.60
75517;DHT22;64097;52.548;13.406;2024-03-25T07:49:44;13.50;61.50
75517;DHT22;64097;52.548;13.406;2024-03-25T07:52:10;13.60;61.60
75517;DHT22;64097;52.548;13.406;2024-03-25T07:54:35;13.60;61.60
75517;DHT22;64097;52.548;13.406;2024-03-25T07:57:03;13.60;61.60
75517;DHT22;64097;52.548;13.406;2024-03-25T07:59:29;13.60;61.60
75517;DHT22;64097;52.548;13.406;2024-03-25T08:01:55;13.60;61.60
75517;DHT22;64097;52.548;13.406;2024-03-25T08:04:21;13.60;61.60
75517;DHT22;64097;52.548;13.406;2024-03-25T08:06:47;13.50;61.80
75517;DHT22;64097;52.548;13.406;2024-03-25T08:09:12;13.50;61.80
75517;DHT22;64097;52.548;13.406;2024-03-25T08:11:41;13.60;62.00
75517;DHT22;64097;52.548;13.406;2024-03-25T08:14:09;13.60;62.00
75517;DHT22;64097;52.548;13.406;2024-03-25T08:16:35;13.60;61.50
75517;DHT22;64097;52.548;13.406;2024-03-25T08:19:00;13.60;61.40
75517;DHT22;64097;52.548;13.406;2024-03-25T08:21:26;13.60;61.50
75517;DHT22;64097;52.548;13.406;2024-03-25T08:23:52;13.60;61.70
75517;DHT22;64097;52.548;13.406;2024-03-25T08:26:17;13.60;61.70
75517;DHT22;64097;52.548;13.406;2024-03-25T08:28:43;13.60;61.60
75517;DHT22;64097;52.548;13.406;2024-03-25T08:31:09;13.70;61.80
75517;DHT22;64097;52.548;13.406;2024-03-25T08:33:35;13.70;61.90
75517;DHT22;64097;52.548;13.406;2024-03-25T08:36:00;13.70;61.90
75517;DHT22;64097;52.548;13.406;2024-03-25T08:38:26;13.80;61.90
75517;DHT22;64097;52.548;13.406;2024-03-25T08:40:52;13.90;61.90
75517;DHT22;64097;52.548;13.406;2024-03-25T08:43:18;13.90;61.80
75517;DHT22;64097;52.548;13.406;2024-03-25T08:45:44;14.00;61.60
75517;DHT22;64097;52.548;13.406;2024-03-25T08:48:11;14.10;61.20
75517;DHT22;64097;52.548;13.406;2024-03-25T08:50:37;14.10;62.00
75517;DHT22;64097;52.548;13.406;2024-03-25T08:53:03;14.10;60.80
75517;DHT22;64097;52.548;13.406;2024-03-25T08:55:31;14.10;60.40
75517;DHT22;64097;52.548;13.406;2024-03-25T08:57:57;14.10;60.30
75517;DHT22;64097;52.548;13.406;2024-03-25T09:00:26;14.20;60.00
75517;DHT22;64097;52.548;13.406;2024-03-25T09:02:55;14.10;59.90
75517;DHT22;64097;52.548;13.406;2024-03-25T09:05:21;14.10;59.80
75517;DHT22;64097;52.548;13.406;2024-03-25T09:07:50;14.10;59.90
75517;DHT22;64097;52.548;13.406;2024-03-25T09:10:17;14.10;60.20
75517;DHT22;64097;52.548;13.406;2024-03-25T09:13:02;14.20;60.20
75517;DHT22;64097;52.548;13.406;2024-03-25T09:15:29;14.20;60.20
75517;DHT22;64097;52.548;13.406;2024-03-25T09:17:54;14.20;60.10
75517;DHT22;64097;52.548;13.406;2024-03-25T09:20:20;14.30;60.10
75517;DHT22;64097;52.548;13.406;2024-03-25T09:22:47;14.30;60.10
75517;DHT22;64097;52.548;13.406;2024-03-25T09:25:16;14.40;60.20
75517;DHT22;64097;52.548;13.406;2024-03-25T09:27:46;14.40;60.00
75517;DHT22;64097;52.548;13.406;2024-03-25T09:30:12;14.50;59.80
75517;DHT22;64097;52.548;13.406;2024-03-25T09:32:39;14.50;59.60
75517;DHT22;64097;52.548;13.406;2024-03-25T09:35:05;14.50;59.30
75517;DHT22;64097;52.548;13.406;2024-03-25T09:37:31;14.50;59.20
75517;DHT22;64097;52.548;13.406;2024-03-25T09:39:58;14.50;58.80
75517;DHT22;64097;52.548;13.406;2024-03-25T09:42:33;14.50;58.80
75517;DHT22;64097;52.548;13.406;2024-03-25T09:44:59;14.50;58.90
75517;DHT22;64097;52.548;13.406;2024-03-25T09:47:25;14.50;58.80
75517;DHT22;64097;52.548;13.406;2024-03-25T09:49:52;14.50;58.80
75517;DHT22;64097;52.548;13.406;2024-03-25T09:52:20;14.50;58.80
75517;DHT22;64097;52.548;13.406;2024-03-25T09:54:45;14.50;58.70
75517;DHT22;64097;52.548;13.406;2024-03-25T09:57:12;14.60;59.00
75517;DHT22;64097;52.548;13.406;2024-03-25T09:59:39;14.60;59.20
75517;DHT22;64097;52.548;13.406;2024-03-25T10:02:05;14.70;59.20
75517;DHT22;64097;52.548;13.406;2024-03-25T10:04:32;14.70;59.20
75517;DHT22;64097;52.548;13.406;2024-03-25T10:06:58;14.80;59.10
75517;DHT22;64097;52.548;13.406;2024-03-25T10:09:24;14.90;59.10
75517;DHT22;64097;52.548;13.406;2024-03-25T10:11:51;15.00;59.10
75517;DHT22;64097;52.548;13.406;2024-03-25T10:14:17;15.10;58.90
75517;DHT22;64097;52.548;13.406;2024-03-25T10:16:44;15.20;58.70
75517;DHT22;64097;52.548;13.406;2024-03-25T10:19:11;15.30;58.40
75517;DHT22;64097;52.548;13.406;2024-03-25T10:21:37;15.30;58.30
75517;DHT22;64097;52.548;13.406;2024-03-25T10:24:06;15.30;57.70
75517;DHT22;64097;52.548;13.406;2024-03-25T10:26:33;15.30;57.60
75517;DHT22;64097;52.548;13.406;2024-03-25T10:29:07;15.40;57.70
75517;DHT22;64097;52.548;13.406;2024-03-25T10:31:33;15.40;57.60
75517;DHT22;64097;52.548;13.406;2024-03-25T10:33:59;15.40;57.60
75517;DHT22;64097;52.548;13.406;2024-03-25T10:36:26;15.40;57.50
75517;DHT22;64097;52.548;13.406;2024-03-25T10:38:57;15.50;57.40
75517;DHT22;64097;52.548;13.406;2024-03-25T10:41:23;15.50;57.30
75517;DHT22;64097;52.548;13.406;2024-03-25T10:43:52;15.60;57.20
75517;DHT22;64097;52.548;13.406;2024-03-25T10:46:19;15.60;57.00
75517;DHT22;64097;52.548;13.406;2024-03-25T10:49:02;15.70;56.40
75517;DHT22;64097;52.548;13.406;2024-03-25T10:51:31;15.80;56.00
75517;DHT22;64097;52.548;13.406;2024-03-25T10:53:57;15.80;55.70
75517;DHT22;64097;52.548;13.406;2024-03-25T10:56:24;15.90;55.70
75517;DHT22;64097;52.548;13.406;2024-03-25T10:58:50;15.90;55.30
75517;DHT22;64097;52.548;13.406;2024-03-25T11:01:20;16.00;55.10
75517;DHT22;64097;52.548;13.406;2024-03-25T11:03:46;16.00;54.90
75517;DHT22;64097;52.548;13.406;2024-03-25T11:06:14;16.00;55.10
75517;DHT22;64097;52.548;13.406;2024-03-25T11:08:40;16.10;55.00
75517;DHT22;64097;52.548;13.406;2024-03-25T11:11:07;16.10;55.10
75517;DHT22;64097;52.548;13.406;2024-03-25T11:13:33;16.20;54.40
75517;DHT22;64097;52.548;13.406;2024-03-25T11:15:59;16.20;54.30
75517;DHT22;64097;52.548;13.406;2024-03-25T11:18:26;16.20;54.10
75517;DHT22;64097;52.548;13.406;2024-03-25T11:21:03;16.20;53.60
75517;DHT22;64097;52.548;13.406;2024-03-25T11:23:40;16.20;53.00
75517;DHT22;64097;52.548;13.406;2024-03-25T11:26:35;16.30;52.70
75517;DHT22;64097;52.548;13.406;2024-03-25T11:29:05;16.30;52.90
75517;DHT22;64097;52.548;13.406;2024-03-25T11:31:33;16.30;52.40
75517;DHT22;64097;52.548;13.406;2024-03-25T11:34:04;16.40;52.60
75517;DHT22;64097;52.548;13.406;2024-03-25T11:36:29;16.40;52.00
75517;DHT22;64097;52.548;13.406;2024-03-25T11:39:03;16.40;51.90
75517;DHT22;64097;52.548;13.406;2024-03-25T11:41:33;16.40;51.70
75517;DHT22;64097;52.548;13.406;2024-03-25T11:43:59;16.40;51.70
75517;DHT22;64097;52.548;13.406;2024-03-25T11:46:25;16.40;51.80
75517;DHT22;64097;52.548;13.406;2024-03-25T11:48:52;16.50;51.40
75517;DHT22;64097;52.548;13.406;2024-03-25T11:51:18;16.50;51.30
75517;DHT22;64097;52.548;13.406;2024-03-25T11:53:44;16.50;51.10
75517;DHT22;64097;52.548;13.406;2024-03-25T11:56:11;16.50;51.10
75517;DHT22;64097;52.548;13.406;2024-03-25T11:58:37;16.50;51.20
75517;DHT22;64097;52.548;13.406;2024-03-25T12:01:03;16.50;51.30
75517;DHT22;64097;52.548;13.406;2024-03-25T12:03:29;16.60;51.20
75517;DHT22;64097;52.548;13.406;2024-03-25T12:05:56;16.70;51.10
75517;DHT22;64097;52.548;13.406;2024-03-25T12:08:22;16.70;50.90
75517;DHT22;64097;52.548;13.406;2024-03-25T12:10:51;16.80;51.20
75517;DHT22;64097;52.548;13.406;2024-03-25T12:13:38;16.90;51.00
75517;DHT22;64097;52.548;13.406;2024-03-25T12:16:08;16.90;50.80
75517;DHT22;64097;52.548;13.406;2024-03-25T12:18:39;16.90;50.50
75517;DHT22;64097;52.548;13.406;2024-03-25T12:21:06;17.00;50.00
75517;DHT22;64097;52.548;13.406;2024-03-25T12:23:33;16.90;49.30
75517;DHT22;64097;52.548;13.406;2024-03-25T12:26:00;16.90;49.50
75517;DHT22;64097;52.548;13.406;2024-03-25T12:28:26;16.90;49.20
75517;DHT22;64097;52.548;13.406;2024-03-25T12:30:53;16.90;48.50
75517;DHT22;64097;52.548;13.406;2024-03-25T12:33:20;16.80;47.90
75517;DHT22;64097;52.548;13.406;2024-03-25T12:35:47;16.80;47.70
75517;DHT22;64097;52.548;13.406;2024-03-25T12:41:00;16.70;48.20
75517;DHT22;64097;52.548;13.406;2024-03-25T12:43:31;16.70;48.30
75517;DHT22;64097;52.548;13.406;2024-03-25T12:45:58;16.60;48.60
75517;DHT22;64097;52.548;13.406;2024-03-25T12:48:24;16.60;48.20
75517;DHT22;64097;52.548;13.406;2024-03-25T12:50:50;16.60;47.90
75517;DHT22;64097;52.548;13.406;2024-03-25T12:53:17;16.60;48.10
75517;DHT22;64097;52.548;13.406;2024-03-25T12:55:44;16.50;48.40
75517;DHT22;64097;52.548;13.406;2024-03-25T12:58:10;16.60;48.40
75517;DHT22;64097;52.548;13.406;2024-03-25T13:00:35;16.60;48.30
75517;DHT22;64097;52.548;13.406;2024-03-25T13:03:01;16.60;47.60
75517;DHT22;64097;52.548;13.406;2024-03-25T13:05:27;16.70;47.80
75517;DHT22;64097;52.548;13.406;2024-03-25T13:07:54;16.70;47.90
75517;DHT22;64097;52.548;13.406;2024-03-25T13:10:20;16.80;47.80
75517;DHT22;64097;52.548;13.406;2024-03-25T13:12:46;16.80;47.70
75517;DHT22;64097;52.548;13.406;2024-03-25T13:15:12;16.90;47.80
75517;DHT22;64097;52.548;13.406;2024-03-25T13:17:38;16.90;47.90
75517;DHT22;64097;52.548;13.406;2024-03-25T13:20:04;16.90;47.70
75517;DHT22;64097;52.548;13.406;2024-03-25T13:22:30;17.00;47.90
75517;DHT22;64097;52.548;13.406;2024-03-25T13:24:58;17.00;47.70
75517;DHT22;64097;52.548;13.406;2024-03-25T13:27:24;17.00;47.60
75517;DHT22;64097;52.548;13.406;2024-03-25T13:29:50;17.00;47.60
75517;DHT22;64097;52.548;13.406;2024-03-25T13:32:21;17.10;47.80
75517;DHT22;64097;52.548;13.406;2024-03-25T13:34:47;17.10;47.60
75517;DHT22;64097;52.548;13.406;2024-03-25T13:37:13;17.10;47.10
75517;DHT22;64097;52.548;13.406;2024-03-25T13:39:38;17.10;47.30
75517;DHT22;64097;52.548;13.406;2024-03-25T13:42:04;17.10;47.20
75517;DHT22;64097;52.548;13.406;2024-03-25T13:44:30;17.20;47.20
75517;DHT22;64097;52.548;13.406;2024-03-25T13:46:56;17.20;47.00
75517;DHT22;64097;52.548;13.406;2024-03-25T13:49:21;17.20;46.10
75517;DHT22;64097;52.548;13.406;2024-03-25T13:51:51;17.20;45.20
75517;DHT22;64097;52.548;13.406;2024-03-25T13:54:21;17.20;45.00
75517;DHT22;64097;52.548;13.406;2024-03-25T13:56:47;17.20;45.00
75517;DHT22;64097;52.548;13.406;2024-03-25T13:59:13;17.20;44.20
